KCBK/CBK METAR and TAF weather

Enter ICAO airport designator
Station Type Date Time Source
KCBK METAR 2020/07/14 21:55 UTC NOAA

KCBK 142155Z AUTO 04013G17KT 10SM OVC017 21/17 A3002 RMK AO2 PWINO


Station Type Date Time Source
KCBK Decoded METAR 2020/07/14 21:55 UTC NOAA

Station name not available
Jul 14, 2020 - 05:55 PM EDT / 2020.07.14 2155 UTC
Wind: from the NE (040 degrees) at 15 MPH (13 KT) gusting to 20 MPH (17 KT):0
Visibility: 10 mile(s):0
Sky conditions: overcast
Temperature: 69 F (21 C)
Dew Point: 62 F (17 C)
Relative Humidity: 77%
Pressure (altimeter): 30.02 in. Hg (1016 hPa)
ob: KCBK 142155Z AUTO 04013G17KT 10SM OVC017 21/17 A3002 RMK AO2 PWINO
cycle: 22

Station Type Date Time Source
KCBK TAF UTC NOAA

Error!

Example: see airport list